sensor_id;sensor_type;location;lat;lon;timestamp;pressure;altitude;pressure_sealevel;temperature
78225;BMP280;67498;53.650;10.090;2023-09-18T00:00:26;100989.00;;;18.89
78225;BMP280;67498;53.650;10.090;2023-09-18T00:02:51;100986.19;;;18.93
78225;BMP280;67498;53.650;10.090;2023-09-18T00:05:17;100990.00;;;18.92
78225;BMP280;67498;53.650;10.090;2023-09-18T00:07:42;100982.97;;;18.89
78225;BMP280;67498;53.650;10.090;2023-09-18T00:10:09;100981.66;;;18.84
78225;BMP280;67498;53.650;10.090;2023-09-18T00:12:35;100981.28;;;18.77
78225;BMP280;67498;53.650;10.090;2023-09-18T00:15:00;100973.59;;;18.79
78225;BMP280;67498;53.650;10.090;2023-09-18T00:17:25;100980.50;;;18.85
78225;BMP280;67498;53.650;10.090;2023-09-18T00:19:51;100975.47;;;18.87
78225;BMP280;67498;53.650;10.090;2023-09-18T00:22:17;100969.00;;;18.88
78225;BMP280;67498;53.650;10.090;2023-09-18T00:24:42;100961.22;;;18.85
78225;BMP280;67498;53.650;10.090;2023-09-18T00:27:07;100972.38;;;18.89
78225;BMP280;67498;53.650;10.090;2023-09-18T00:29:33;100966.97;;;18.83
78225;BMP280;67498;53.650;10.090;2023-09-18T00:31:58;100956.53;;;18.80
78225;BMP280;67498;53.650;10.090;2023-09-18T00:34:23;100951.81;;;18.84
78225;BMP280;67498;53.650;10.090;2023-09-18T00:36:48;100943.50;;;18.76
78225;BMP280;67498;53.650;10.090;2023-09-18T00:39:14;100937.91;;;18.74
78225;BMP280;67498;53.650;10.090;2023-09-18T00:41:40;100942.28;;;18.77
78225;BMP280;67498;53.650;10.090;2023-09-18T00:44:06;100933.81;;;18.73
78225;BMP280;67498;53.650;10.090;2023-09-18T00:46:32;100925.28;;;18.69
78225;BMP280;67498;53.650;10.090;2023-09-18T00:48:58;100931.63;;;18.72
78225;BMP280;67498;53.650;10.090;2023-09-18T00:51:23;100929.84;;;18.68
78225;BMP280;67498;53.650;10.090;2023-09-18T00:53:49;100916.97;;;18.61
78225;BMP280;67498;53.650;10.090;2023-09-18T00:56:15;100913.28;;;18.59
78225;BMP280;67498;53.650;10.090;2023-09-18T00:58:41;100917.81;;;18.58
78225;BMP280;67498;53.650;10.090;2023-09-18T01:01:06;100918.72;;;18.55
78225;BMP280;67498;53.650;10.090;2023-09-18T01:03:31;100911.72;;;18.52
78225;BMP280;67498;53.650;10.090;2023-09-18T01:05:57;100906.28;;;18.47
78225;BMP280;67498;53.650;10.090;2023-09-18T01:08:22;100912.31;;;18.47
78225;BMP280;67498;53.650;10.090;2023-09-18T01:11:40;100914.38;;;18.43
78225;BMP280;67498;53.650;10.090;2023-09-18T01:13:51;100917.75;;;18.43
78225;BMP280;67498;53.650;10.090;2023-09-18T01:16:24;100914.41;;;18.34
78225;BMP280;67498;53.650;10.090;2023-09-18T01:18:51;100910.56;;;18.35
78225;BMP280;67498;53.650;10.090;2023-09-18T01:21:19;100901.81;;;18.29
78225;BMP280;67498;53.650;10.090;2023-09-18T01:23:44;100914.13;;;18.32
78225;BMP280;67498;53.650;10.090;2023-09-18T01:26:09;100892.56;;;18.24
78225;BMP280;67498;53.650;10.090;2023-09-18T01:28:34;100884.72;;;18.30
78225;BMP280;67498;53.650;10.090;2023-09-18T01:31:00;100884.13;;;18.35
78225;BMP280;67498;53.650;10.090;2023-09-18T01:33:26;100883.69;;;18.36
78225;BMP280;67498;53.650;10.090;2023-09-18T01:35:52;100875.47;;;18.34
78225;BMP280;67498;53.650;10.090;2023-09-18T01:38:21;100876.69;;;18.33
78225;BMP280;67498;53.650;10.090;2023-09-18T01:40:47;100857.59;;;18.29
78225;BMP280;67498;53.650;10.090;2023-09-18T01:43:12;100872.13;;;18.34
78225;BMP280;67498;53.650;10.090;2023-09-18T01:45:38;100848.94;;;18.29
78225;BMP280;67498;53.650;10.090;2023-09-18T01:48:05;100842.63;;;18.26
78225;BMP280;67498;53.650;10.090;2023-09-18T01:50:31;100846.41;;;18.25
78225;BMP280;67498;53.650;10.090;2023-09-18T01:52:58;100843.53;;;18.23
78225;BMP280;67498;53.650;10.090;2023-09-18T01:55:23;100841.47;;;18.18
78225;BMP280;67498;53.650;10.090;2023-09-18T01:57:49;100837.34;;;18.17
78225;BMP280;67498;53.650;10.090;2023-09-18T02:00:14;100832.38;;;18.19
78225;BMP280;67498;53.650;10.090;2023-09-18T02:02:40;100832.38;;;18.19
78225;BMP280;67498;53.650;10.090;2023-09-18T02:05:05;100822.97;;;18.18
78225;BMP280;67498;53.650;10.090;2023-09-18T02:07:31;100801.69;;;18.12
78225;BMP280;67498;53.650;10.090;2023-09-18T02:09:57;100813.69;;;18.23
78225;BMP280;67498;53.650;10.090;2023-09-18T02:12:22;100812.53;;;18.24
78225;BMP280;67498;53.650;10.090;2023-09-18T02:14:47;100817.34;;;18.25
78225;BMP280;67498;53.650;10.090;2023-09-18T02:17:13;100806.34;;;18.27
78225;BMP280;67498;53.650;10.090;2023-09-18T02:19:38;100808.97;;;18.27
78225;BMP280;67498;53.650;10.090;2023-09-18T02:22:03;100801.47;;;18.25
78225;BMP280;67498;53.650;10.090;2023-09-18T02:24:29;100797.09;;;18.22
78225;BMP280;67498;53.650;10.090;2023-09-18T02:26:54;100797.81;;;18.23
78225;BMP280;67498;53.650;10.090;2023-09-18T02:29:19;100790.66;;;18.23
78225;BMP280;67498;53.650;10.090;2023-09-18T02:31:45;100780.50;;;18.22
78225;BMP280;67498;53.650;10.090;2023-09-18T02:34:11;100783.31;;;18.18
78225;BMP280;67498;53.650;10.090;2023-09-18T02:36:36;100773.66;;;18.15
78225;BMP280;67498;53.650;10.090;2023-09-18T02:39:01;100783.16;;;18.22
78225;BMP280;67498;53.650;10.090;2023-09-18T02:41:27;100774.97;;;18.10
78225;BMP280;67498;53.650;10.090;2023-09-18T02:43:52;100783.59;;;18.20
78225;BMP280;67498;53.650;10.090;2023-09-18T02:46:18;100778.22;;;18.14
78225;BMP280;67498;53.650;10.090;2023-09-18T02:48:43;100767.63;;;18.14
78225;BMP280;67498;53.650;10.090;2023-09-18T02:51:08;100762.78;;;18.13
78225;BMP280;67498;53.650;10.090;2023-09-18T02:53:34;100754.84;;;18.13
78225;BMP280;67498;53.650;10.090;2023-09-18T02:55:59;100749.03;;;18.09
78225;BMP280;67498;53.650;10.090;2023-09-18T02:58:25;100763.25;;;18.11
78225;BMP280;67498;53.650;10.090;2023-09-18T03:00:52;100750.47;;;18.10
78225;BMP280;67498;53.650;10.090;2023-09-18T03:03:18;100747.09;;;18.09
78225;BMP280;67498;53.650;10.090;2023-09-18T03:05:44;100742.44;;;18.04
78225;BMP280;67498;53.650;10.090;2023-09-18T03:08:10;100742.25;;;18.08
78225;BMP280;67498;53.650;10.090;2023-09-18T03:10:37;100738.75;;;18.02
78225;BMP280;67498;53.650;10.090;2023-09-18T03:13:04;100753.28;;;18.06
78225;BMP280;67498;53.650;10.090;2023-09-18T03:15:30;100751.97;;;18.02
78225;BMP280;67498;53.650;10.090;2023-09-18T03:17:57;100751.69;;;18.00
78225;BMP280;67498;53.650;10.090;2023-09-18T03:20:24;100748.56;;;18.01
78225;BMP280;67498;53.650;10.090;2023-09-18T03:22:55;100750.78;;;18.03
78225;BMP280;67498;53.650;10.090;2023-09-18T03:25:21;100745.63;;;18.08
78225;BMP280;67498;53.650;10.090;2023-09-18T03:27:47;100744.16;;;18.07
78225;BMP280;67498;53.650;10.090;2023-09-18T03:30:13;100732.41;;;18.08
78225;BMP280;67498;53.650;10.090;2023-09-18T03:32:43;100730.94;;;18.07
78225;BMP280;67498;53.650;10.090;2023-09-18T03:35:09;100730.94;;;18.07
78225;BMP280;67498;53.650;10.090;2023-09-18T03:37:42;100731.38;;;18.06
78225;BMP280;67498;53.650;10.090;2023-09-18T03:40:08;100718.66;;;18.04
78225;BMP280;67498;53.650;10.090;2023-09-18T03:42:34;100713.38;;;18.04
78225;BMP280;67498;53.650;10.090;2023-09-18T03:44:59;100699.28;;;17.98
78225;BMP280;67498;53.650;10.090;2023-09-18T03:47:24;100706.78;;;18.00
78225;BMP280;67498;53.650;10.090;2023-09-18T03:49:50;100694.44;;;17.97
78225;BMP280;67498;53.650;10.090;2023-09-18T03:52:15;100690.63;;;17.98
78225;BMP280;67498;53.650;10.090;2023-09-18T03:54:41;100688.72;;;17.98
78225;BMP280;67498;53.650;10.090;2023-09-18T03:57:06;100676.84;;;17.93
78225;BMP280;67498;53.650;10.090;2023-09-18T03:59:31;100668.34;;;17.89
78225;BMP280;67498;53.650;10.090;2023-09-18T04:01:56;100665.72;;;17.89
78225;BMP280;67498;53.650;10.090;2023-09-18T04:04:22;100670.84;;;17.93
78225;BMP280;67498;53.650;10.090;2023-09-18T04:06:47;100668.34;;;17.89
78225;BMP280;67498;53.650;10.090;2023-09-18T04:09:13;100660.03;;;17.82
78225;BMP280;67498;53.650;10.090;2023-09-18T04:11:40;100660.75;;;17.82
78225;BMP280;67498;53.650;10.090;2023-09-18T04:14:05;100649.81;;;17.75
78225;BMP280;67498;53.650;10.090;2023-09-18T04:16:30;100656.84;;;17.78
78225;BMP280;67498;53.650;10.090;2023-09-18T04:18:56;100643.38;;;17.76
78225;BMP280;67498;53.650;10.090;2023-09-18T04:21:22;100653.00;;;17.79
78225;BMP280;67498;53.650;10.090;2023-09-18T04:23:49;100648.16;;;17.77
78225;BMP280;67498;53.650;10.090;2023-09-18T04:26:20;100649.66;;;17.78
78225;BMP280;67498;53.650;10.090;2023-09-18T04:28:46;100638.22;;;17.72
78225;BMP280;67498;53.650;10.090;2023-09-18T04:31:12;100633.22;;;17.74
78225;BMP280;67498;53.650;10.090;2023-09-18T04:33:37;100636.19;;;17.67
78225;BMP280;67498;53.650;10.090;2023-09-18T04:36:03;100642.06;;;17.71
78225;BMP280;67498;53.650;10.090;2023-09-18T04:38:29;100628.25;;;17.67
78225;BMP280;67498;53.650;10.090;2023-09-18T04:41:00;100634.00;;;17.65
78225;BMP280;67498;53.650;10.090;2023-09-18T04:43:26;100629.19;;;17.64
78225;BMP280;67498;53.650;10.090;2023-09-18T04:45:54;100626.69;;;17.60
78225;BMP280;67498;53.650;10.090;2023-09-18T04:48:19;100618.66;;;17.55
78225;BMP280;67498;53.650;10.090;2023-09-18T04:50:44;100606.75;;;17.59
78225;BMP280;67498;53.650;10.090;2023-09-18T04:53:10;100599.56;;;17.60
78225;BMP280;67498;53.650;10.090;2023-09-18T04:55:35;100597.91;;;17.62
78225;BMP280;67498;53.650;10.090;2023-09-18T04:58:00;100594.53;;;17.62
78225;BMP280;67498;53.650;10.090;2023-09-18T05:00:25;100594.53;;;17.62
78225;BMP280;67498;53.650;10.090;2023-09-18T05:02:52;100585.78;;;17.56
78225;BMP280;67498;53.650;10.090;2023-09-18T05:05:18;100589.56;;;17.64
78225;BMP280;67498;53.650;10.090;2023-09-18T05:07:43;100582.81;;;17.63
78225;BMP280;67498;53.650;10.090;2023-09-18T05:10:09;100562.59;;;17.60
78225;BMP280;67498;53.650;10.090;2023-09-18T05:12:34;100573.53;;;17.67
78225;BMP280;67498;53.650;10.090;2023-09-18T05:15:00;100553.31;;;17.64
78225;BMP280;67498;53.650;10.090;2023-09-18T05:17:40;100558.25;;;17.72
78225;BMP280;67498;53.650;10.090;2023-09-18T05:20:06;100535.09;;;17.66
78225;BMP280;67498;53.650;10.090;2023-09-18T05:22:32;100535.50;;;17.74
78225;BMP280;67498;53.650;10.090;2023-09-18T05:24:58;100527.78;;;17.71
78225;BMP280;67498;53.650;10.090;2023-09-18T05:27:24;100523.91;;;17.72
78225;BMP280;67498;53.650;10.090;2023-09-18T05:29:50;100525.81;;;17.80
78225;BMP280;67498;53.650;10.090;2023-09-18T05:32:15;100519.03;;;17.79
78225;BMP280;67498;53.650;10.090;2023-09-18T05:34:40;100512.97;;;17.88
78225;BMP280;67498;53.650;10.090;2023-09-18T05:37:06;100503.13;;;17.88
78225;BMP280;67498;53.650;10.090;2023-09-18T05:39:31;100502.06;;;17.95
78225;BMP280;67498;53.650;10.090;2023-09-18T05:41:56;100495.75;;;17.92
78225;BMP280;67498;53.650;10.090;2023-09-18T05:44:23;100502.63;;;17.99
78225;BMP280;67498;53.650;10.090;2023-09-18T05:46:48;100501.84;;;17.99
78225;BMP280;67498;53.650;10.090;2023-09-18T05:49:14;100511.53;;;18.02
78225;BMP280;67498;53.650;10.090;2023-09-18T05:51:39;100509.91;;;18.04
78225;BMP280;67498;53.650;10.090;2023-09-18T05:54:05;100491.84;;;18.03
78225;BMP280;67498;53.650;10.090;2023-09-18T05:56:30;100509.53;;;18.11
78225;BMP280;67498;53.650;10.090;2023-09-18T05:58:55;100493.41;;;18.09
78225;BMP280;67498;53.650;10.090;2023-09-18T06:01:21;100480.75;;;18.13
78225;BMP280;67498;53.650;10.090;2023-09-18T06:03:46;100484.03;;;18.23
78225;BMP280;67498;53.650;10.090;2023-09-18T06:06:12;100489.41;;;18.29
78225;BMP280;67498;53.650;10.090;2023-09-18T06:08:38;100487.34;;;18.33
78225;BMP280;67498;53.650;10.090;2023-09-18T06:11:03;100477.00;;;18.35
78225;BMP280;67498;53.650;10.090;2023-09-18T06:13:28;100466.69;;;18.37
78225;BMP280;67498;53.650;10.090;2023-09-18T06:15:55;100472.63;;;18.47
78225;BMP280;67498;53.650;10.090;2023-09-18T06:18:21;100460.38;;;18.49
78225;BMP280;67498;53.650;10.090;2023-09-18T06:20:47;100462.50;;;18.60
78225;BMP280;67498;53.650;10.090;2023-09-18T06:23:13;100456.25;;;18.63
78225;BMP280;67498;53.650;10.090;2023-09-18T06:25:39;100453.25;;;18.70
78225;BMP280;67498;53.650;10.090;2023-09-18T06:28:05;100458.66;;;18.76
78225;BMP280;67498;53.650;10.090;2023-09-18T06:30:30;100458.00;;;18.81
78225;BMP280;67498;53.650;10.090;2023-09-18T06:32:56;100457.59;;;18.88
78225;BMP280;67498;53.650;10.090;2023-09-18T06:35:21;100458.38;;;18.94
78225;BMP280;67498;53.650;10.090;2023-09-18T06:37:47;100449.97;;;18.95
78225;BMP280;67498;53.650;10.090;2023-09-18T06:40:13;100441.00;;;19.08
78225;BMP280;67498;53.650;10.090;2023-09-18T06:42:38;100444.72;;;19.16
78225;BMP280;67498;53.650;10.090;2023-09-18T06:45:05;100442.59;;;19.20
78225;BMP280;67498;53.650;10.090;2023-09-18T06:47:32;100438.00;;;19.20
78225;BMP280;67498;53.650;10.090;2023-09-18T06:49:57;100444.38;;;19.29
78225;BMP280;67498;53.650;10.090;2023-09-18T06:52:23;100437.44;;;19.31
78225;BMP280;67498;53.650;10.090;2023-09-18T06:54:48;100430.19;;;19.32
78225;BMP280;67498;53.650;10.090;2023-09-18T06:57:13;100429.81;;;19.39
78225;BMP280;67498;53.650;10.090;2023-09-18T06:59:39;100437.56;;;19.42
78225;BMP280;67498;53.650;10.090;2023-09-18T07:02:04;100424.56;;;19.44
78225;BMP280;67498;53.650;10.090;2023-09-18T07:04:29;100418.06;;;19.45
78225;BMP280;67498;53.650;10.090;2023-09-18T07:06:55;100407.75;;;19.47
78225;BMP280;67498;53.650;10.090;2023-09-18T07:09:21;100394.03;;;19.49
78225;BMP280;67498;53.650;10.090;2023-09-18T07:11:48;100381.56;;;19.55
78225;BMP280;67498;53.650;10.090;2023-09-18T07:14:14;100383.59;;;19.66
78225;BMP280;67498;53.650;10.090;2023-09-18T07:16:39;100385.06;;;19.72
78225;BMP280;67498;53.650;10.090;2023-09-18T07:19:05;100377.19;;;19.78
78225;BMP280;67498;53.650;10.090;2023-09-18T07:21:30;100376.03;;;19.85
78225;BMP280;67498;53.650;10.090;2023-09-18T07:23:56;100364.75;;;19.90
78225;BMP280;67498;53.650;10.090;2023-09-18T07:26:21;100353.94;;;19.93
78225;BMP280;67498;53.650;10.090;2023-09-18T07:28:46;100356.69;;;20.10
78225;BMP280;67498;53.650;10.090;2023-09-18T07:31:12;100350.97;;;20.23
78225;BMP280;67498;53.650;10.090;2023-09-18T07:33:39;100338.50;;;20.35
78225;BMP280;67498;53.650;10.090;2023-09-18T07:36:04;100350.41;;;20.56
78225;BMP280;67498;53.650;10.090;2023-09-18T07:38:30;100340.63;;;20.79
78225;BMP280;67498;53.650;10.090;2023-09-18T07:40:55;100337.06;;;21.04
78225;BMP280;67498;53.650;10.090;2023-09-18T07:43:23;100340.44;;;21.11
78225;BMP280;67498;53.650;10.090;2023-09-18T07:45:49;100349.41;;;21.24
78225;BMP280;67498;53.650;10.090;2023-09-18T07:48:15;100352.28;;;21.21
78225;BMP280;67498;53.650;10.090;2023-09-18T07:50:44;100360.00;;;21.30
78225;BMP280;67498;53.650;10.090;2023-09-18T07:53:10;100345.03;;;21.32
78225;BMP280;67498;53.650;10.090;2023-09-18T07:55:35;100356.63;;;21.35
78225;BMP280;67498;53.650;10.090;2023-09-18T07:58:00;100347.00;;;21.38
78225;BMP280;67498;53.650;10.090;2023-09-18T08:00:26;100345.53;;;21.37
78225;BMP280;67498;53.650;10.090;2023-09-18T08:02:54;100327.19;;;21.39
78225;BMP280;67498;53.650;10.090;2023-09-18T08:05:24;100337.34;;;21.46
78225;BMP280;67498;53.650;10.090;2023-09-18T08:07:55;100328.38;;;21.49
78225;BMP280;67498;53.650;10.090;2023-09-18T08:10:22;100328.16;;;21.52
78225;BMP280;67498;53.650;10.090;2023-09-18T08:12:47;100323.34;;;21.45
78225;BMP280;67498;53.650;10.090;2023-09-18T08:15:13;100326.94;;;21.53
78225;BMP280;67498;53.650;10.090;2023-09-18T08:17:39;100322.59;;;21.56
78225;BMP280;67498;53.650;10.090;2023-09-18T08:20:06;100300.59;;;21.55
78225;BMP280;67498;53.650;10.090;2023-09-18T08:22:37;100313.66;;;21.65
78225;BMP280;67498;53.650;10.090;2023-09-18T08:25:02;100306.88;;;21.64
78225;BMP280;67498;53.650;10.090;2023-09-18T08:27:28;100305.41;;;21.68
78225;BMP280;67498;53.650;10.090;2023-09-18T08:29:54;100308.06;;;21.68
78225;BMP280;67498;53.650;10.090;2023-09-18T08:32:19;100313.41;;;21.74
78225;BMP280;67498;53.650;10.090;2023-09-18T08:34:44;100342.38;;;21.72
78225;BMP280;67498;53.650;10.090;2023-09-18T08:37:09;100357.88;;;21.73
78225;BMP280;67498;53.650;10.090;2023-09-18T08:39:35;100351.31;;;21.80
78225;BMP280;67498;53.650;10.090;2023-09-18T08:42:07;100346.72;;;21.80
78225;BMP280;67498;53.650;10.090;2023-09-18T08:44:38;100352.50;;;21.84
78225;BMP280;67498;53.650;10.090;2023-09-18T08:47:05;100358.06;;;21.92
78225;BMP280;67498;53.650;10.090;2023-09-18T08:49:30;100353.69;;;21.95
78225;BMP280;67498;53.650;10.090;2023-09-18T08:51:56;100364.06;;;21.98
78225;BMP280;67498;53.650;10.090;2023-09-18T08:54:22;100364.81;;;22.04
78225;BMP280;67498;53.650;10.090;2023-09-18T08:56:51;100355.84;;;22.07
78225;BMP280;67498;53.650;10.090;2023-09-18T08:59:17;100355.84;;;22.07
78225;BMP280;67498;53.650;10.090;2023-09-18T09:01:45;100368.91;;;22.05
78225;BMP280;67498;53.650;10.090;2023-09-18T09:04:10;100357.53;;;21.99
78225;BMP280;67498;53.650;10.090;2023-09-18T09:06:36;100343.53;;;21.99
78225;BMP280;67498;53.650;10.090;2023-09-18T09:09:02;100356.09;;;21.98
78225;BMP280;67498;53.650;10.090;2023-09-18T09:11:27;100353.94;;;22.02
78225;BMP280;67498;53.650;10.090;2023-09-18T09:14:13;100343.53;;;22.04
78225;BMP280;67498;53.650;10.090;2023-09-18T09:16:47;100340.38;;;22.06
78225;BMP280;67498;53.650;10.090;2023-09-18T09:19:13;100343.53;;;22.10
78225;BMP280;67498;53.650;10.090;2023-09-18T09:21:40;100336.50;;;22.12
78225;BMP280;67498;53.650;10.090;2023-09-18T09:24:06;100329.47;;;22.15
78225;BMP280;67498;53.650;10.090;2023-09-18T09:26:32;100338.63;;;22.25
78225;BMP280;67498;53.650;10.090;2023-09-18T09:29:14;100310.81;;;22.26
78225;BMP280;67498;53.650;10.090;2023-09-18T09:31:40;100317.31;;;22.36
78225;BMP280;67498;53.650;10.090;2023-09-18T09:34:05;100323.34;;;22.37
78225;BMP280;67498;53.650;10.090;2023-09-18T09:36:31;100313.66;;;22.45
78225;BMP280;67498;53.650;10.090;2023-09-18T09:38:58;100317.91;;;22.54
78225;BMP280;67498;53.650;10.090;2023-09-18T09:41:24;100307.47;;;22.67
78225;BMP280;67498;53.650;10.090;2023-09-18T09:43:51;100304.53;;;22.76
78225;BMP280;67498;53.650;10.090;2023-09-18T09:46:17;100309.09;;;22.76
78225;BMP280;67498;53.650;10.090;2023-09-18T09:49:02;100300.19;;;22.67
78225;BMP280;67498;53.650;10.090;2023-09-18T09:51:29;100309.41;;;22.66
78225;BMP280;67498;53.650;10.090;2023-09-18T09:53:54;100297.81;;;22.58
78225;BMP280;67498;53.650;10.090;2023-09-18T09:56:20;100304.84;;;22.61
78225;BMP280;67498;53.650;10.090;2023-09-18T09:59:04;100307.47;;;22.67
78225;BMP280;67498;53.650;10.090;2023-09-18T10:01:33;100309.09;;;22.76
78225;BMP280;67498;53.650;10.090;2023-09-18T10:03:59;100308.34;;;22.81
78225;BMP280;67498;53.650;10.090;2023-09-18T10:06:26;100296.47;;;22.82
78225;BMP280;67498;53.650;10.090;2023-09-18T10:08:55;100301.53;;;22.85
78225;BMP280;67498;53.650;10.090;2023-09-18T10:11:21;100288.00;;;22.83
78225;BMP280;67498;53.650;10.090;2023-09-18T10:13:55;100291.31;;;22.89
78225;BMP280;67498;53.650;10.090;2023-09-18T10:16:23;100282.16;;;22.90
78225;BMP280;67498;53.650;10.090;2023-09-18T10:19:09;100296.41;;;22.93
78225;BMP280;67498;53.650;10.090;2023-09-18T10:22:01;100305.31;;;22.95
78225;BMP280;67498;53.650;10.090;2023-09-18T10:24:33;100311.13;;;23.00
78225;BMP280;67498;53.650;10.090;2023-09-18T10:27:02;100301.63;;;23.04
78225;BMP280;67498;53.650;10.090;2023-09-18T10:29:29;100311.06;;;23.05
78225;BMP280;67498;53.650;10.090;2023-09-18T10:31:55;100305.75;;;23.05
78225;BMP280;67498;53.650;10.090;2023-09-18T10:34:23;100299.69;;;23.05
78225;BMP280;67498;53.650;10.090;2023-09-18T10:36:50;100293.38;;;23.08
78225;BMP280;67498;53.650;10.090;2023-09-18T10:39:15;100291.34;;;23.19
78225;BMP280;67498;53.650;10.090;2023-09-18T10:41:52;100301.63;;;23.34
78225;BMP280;67498;53.650;10.090;2023-09-18T10:44:18;100297.22;;;23.37
78225;BMP280;67498;53.650;10.090;2023-09-18T10:46:45;100302.03;;;23.44
78225;BMP280;67498;53.650;10.090;2023-09-18T10:49:10;100312.84;;;23.52
78225;BMP280;67498;53.650;10.090;2023-09-18T10:51:37;100303.41;;;23.51
78225;BMP280;67498;53.650;10.090;2023-09-18T10:54:10;100295.69;;;23.47
78225;BMP280;67498;53.650;10.090;2023-09-18T10:56:36;100307.78;;;23.48
78225;BMP280;67498;53.650;10.090;2023-09-18T10:59:02;100320.84;;;23.52
78225;BMP280;67498;53.650;10.090;2023-09-18T11:01:30;100311.13;;;23.54
78225;BMP280;67498;53.650;10.090;2023-09-18T11:04:06;100309.28;;;23.68
78225;BMP280;67498;53.650;10.090;2023-09-18T11:09:40;100325.16;;;23.79
78225;BMP280;67498;53.650;10.090;2023-09-18T11:12:05;100309.69;;;23.77
78225;BMP280;67498;53.650;10.090;2023-09-18T11:14:46;100312.88;;;23.95
78225;BMP280;67498;53.650;10.090;2023-09-18T11:17:58;100305.84;;;24.16
78225;BMP280;67498;53.650;10.090;2023-09-18T11:20:24;100308.34;;;24.27
78225;BMP280;67498;53.650;10.090;2023-09-18T11:23:10;100295.72;;;24.28
78225;BMP280;67498;53.650;10.090;2023-09-18T11:25:41;100315.84;;;24.29
78225;BMP280;67498;53.650;10.090;2023-09-18T11:28:14;100318.59;;;24.23
78225;BMP280;67498;53.650;10.090;2023-09-18T11:30:50;100306.00;;;24.18
78225;BMP280;67498;53.650;10.090;2023-09-18T11:33:29;100314.19;;;24.26
78225;BMP280;67498;53.650;10.090;2023-09-18T11:35:55;100324.06;;;24.31
78225;BMP280;67498;53.650;10.090;2023-09-18T11:38:21;100323.78;;;24.35
78225;BMP280;67498;53.650;10.090;2023-09-18T11:40:48;100318.28;;;24.27
78225;BMP280;67498;53.650;10.090;2023-09-18T11:43:21;100326.59;;;24.23
78225;BMP280;67498;53.650;10.090;2023-09-18T11:45:51;100323.03;;;24.15
78225;BMP280;67498;53.650;10.090;2023-09-18T11:48:18;100311.94;;;24.11
78225;BMP280;67498;53.650;10.090;2023-09-18T11:50:44;100326.22;;;24.14
78225;BMP280;67498;53.650;10.090;2023-09-18T11:53:11;100320.69;;;24.12
78225;BMP280;67498;53.650;10.090;2023-09-18T11:55:37;100310.50;;;24.10
78225;BMP280;67498;53.650;10.090;2023-09-18T11:58:04;100318.94;;;24.14
78225;BMP280;67498;53.650;10.090;2023-09-18T12:00:29;100319.81;;;24.22
78225;BMP280;67498;53.650;10.090;2023-09-18T12:02:55;100326.22;;;24.32
78225;BMP280;67498;53.650;10.090;2023-09-18T12:05:20;100332.00;;;24.37
78225;BMP280;67498;53.650;10.090;2023-09-18T12:07:47;100334.22;;;24.32
78225;BMP280;67498;53.650;10.090;2023-09-18T12:10:14;100339.06;;;24.34
78225;BMP280;67498;53.650;10.090;2023-09-18T12:12:42;100345.63;;;24.33
78225;BMP280;67498;53.650;10.090;2023-09-18T12:15:10;100331.13;;;24.28
78225;BMP280;67498;53.650;10.090;2023-09-18T12:17:36;100328.03;;;24.24
78225;BMP280;67498;53.650;10.090;2023-09-18T12:20:01;100335.75;;;24.28
78225;BMP280;67498;53.650;10.090;2023-09-18T12:22:30;100337.69;;;24.27
78225;BMP280;67498;53.650;10.090;2023-09-18T12:27:37;100315.38;;;24.25
78225;BMP280;67498;53.650;10.090;2023-09-18T12:30:04;100324.66;;;24.24
78225;BMP280;67498;53.650;10.090;2023-09-18T12:32:36;100320.72;;;24.25
78225;BMP280;67498;53.650;10.090;2023-09-18T12:35:02;100328.25;;;24.26
78225;BMP280;67498;53.650;10.090;2023-09-18T12:37:28;100334.03;;;24.30
78225;BMP280;67498;53.650;10.090;2023-09-18T12:39:53;100314.91;;;24.26
78225;BMP280;67498;53.650;10.090;2023-09-18T12:42:19;100324.34;;;24.27
78225;BMP280;67498;53.650;10.090;2023-09-18T12:44:47;100327.53;;;24.26
78225;BMP280;67498;53.650;10.090;2023-09-18T12:47:13;100318.88;;;24.20
78225;BMP280;67498;53.650;10.090;2023-09-18T12:49:39;100331.69;;;24.21
78225;BMP280;67498;53.650;10.090;2023-09-18T12:52:05;100305.09;;;24.16
78225;BMP280;67498;53.650;10.090;2023-09-18T12:54:44;100301.13;;;24.22
78225;BMP280;67498;53.650;10.090;2023-09-18T12:57:15;100304.44;;;24.28
78225;BMP280;67498;53.650;10.090;2023-09-18T12:59:40;100300.06;;;24.31
78225;BMP280;67498;53.650;10.090;2023-09-18T13:02:06;100307.19;;;24.42
78225;BMP280;67498;53.650;10.090;2023-09-18T13:04:36;100308.81;;;24.45
78225;BMP280;67498;53.650;10.090;2023-09-18T13:07:10;100315.13;;;24.47
78225;BMP280;67498;53.650;10.090;2023-09-18T13:09:36;100322.81;;;24.51
78225;BMP280;67498;53.650;10.090;2023-09-18T13:12:03;100314.81;;;24.51
78225;BMP280;67498;53.650;10.090;2023-09-18T13:14:28;100323.84;;;24.48
78225;BMP280;67498;53.650;10.090;2023-09-18T13:17:00;100335.97;;;24.49
78225;BMP280;67498;53.650;10.090;2023-09-18T13:19:28;100319.69;;;24.47
78225;BMP280;67498;53.650;10.090;2023-09-18T13:21:53;100321.97;;;24.43
78225;BMP280;67498;53.650;10.090;2023-09-18T13:24:29;100303.19;;;24.48
78225;BMP280;67498;53.650;10.090;2023-09-18T13:26:55;100307.81;;;24.48
78225;BMP280;67498;53.650;10.090;2023-09-18T13:29:23;100313.94;;;24.43
78225;BMP280;67498;53.650;10.090;2023-09-18T13:31:48;100314.22;;;24.39
78225;BMP280;67498;53.650;10.090;2023-09-18T13:34:14;100316.56;;;24.29
78225;BMP280;67498;53.650;10.090;2023-09-18T13:36:43;100326.31;;;24.27
78225;BMP280;67498;53.650;10.090;2023-09-18T13:39:08;100324.22;;;24.20
78225;BMP280;67498;53.650;10.090;2023-09-18T13:41:34;100316.28;;;24.14
78225;BMP280;67498;53.650;10.090;2023-09-18T13:43:59;100308.84;;;24.07
78225;BMP280;67498;53.650;10.090;2023-09-18T13:46:24;100316.41;;;24.03
78225;BMP280;67498;53.650;10.090;2023-09-18T13:48:49;100310.41;;;23.97